Terminal Aerodrome Forecast
Issued by NWS

Home | Current Version | Previous Version | Text Only | Print | Product List | Glossary On
Versions: 1 2 3 4 5 6 7 8 9 10 11 12 13 14 15 16 17 18 19 20 21 22 23 24
000
FTUS44 KLIX 221743
TAFGPT
TAF
KGPT 221743Z 2218/2318 17013G22KT P6SM VCTS BKN015CB OVC023
     FM222000 18020G28KT 5SM -SHRA VCTS SCT015CB OVC025CB
     FM230300 18018G25KT 5SM -SHRA VCTS SCT015CB OVC025CB=

USA.gov is the U.S. government's official web portal to all federal, state and local government web resources and services.